Time;durP1;ratioP1;P1;durP2;ratioP2;P2;SDS_P1;SDS_P2;PMS_P1;PMS_P2;Temp;Humidity;BMP_temperature;BMP_pressure;BME280_temperature;BME280_humidity;BME280_pressure;Samples;Min_cycle;Max_cycle;Signal;HPM_P1;HPM_P2
2023/12/30 00:03:32;;;;;;;13.30;1.50;;;8.60;99.90;;;;;;7362029;32;20170;-54
2023/12/30 00:07:34;;;;;;;10.80;1.20;;;8.60;99.90;;;;;;7369254;32;20317;-56
2023/12/30 00:11:35;;;;;;;8.90;0.93;;;8.60;99.90;;;;;;7369597;32;20107;-55
2023/12/30 00:15:37;;;;;;;8.93;1.37;;;8.70;99.90;;;;;;7374400;32;20110;-55
2023/12/30 00:19:44;;;;;;;7.85;1.02;;;8.70;99.90;;;;;;7366759;32;20126;-55
2023/12/30 00:23:47;;;;;;;11.60;1.25;;;8.70;99.90;;;;;;7362927;32;20103;-54
2023/12/30 00:27:51;;;;;;;8.15;1.33;;;8.70;99.90;;;;;;7363531;32;20111;-55
2023/12/30 00:31:53;;;;;;;8.43;1.23;;;8.70;99.90;;;;;;7365699;32;20265;-54
2023/12/30 00:35:55;;;;;;;15.50;1.37;;;8.70;99.90;;;;;;7360994;32;20126;-54
2023/12/30 00:39:56;;;;;;;9.65;1.60;;;8.70;99.90;;;;;;7367021;32;20563;-55
2023/12/30 00:43:58;;;;;;;12.00;1.30;;;8.70;99.90;;;;;;7360693;32;20107;-56
2023/12/30 00:48:00;;;;;;;8.65;1.40;;;8.70;99.90;;;;;;7360461;32;20529;-55
2023/12/30 00:52:02;;;;;;;12.70;1.50;;;8.60;99.90;;;;;;7367221;32;20592;-56
2023/12/30 00:56:04;;;;;;;8.15;1.42;;;8.50;99.90;;;;;;7359709;32;20285;-55
2023/12/30 01:00:06;;;;;;;8.02;1.30;;;8.50;99.90;;;;;;7368518;32;20421;-55
2023/12/30 01:04:08;;;;;;;8.00;1.00;;;8.40;99.90;;;;;;7364655;32;20578;-55
2023/12/30 01:08:11;;;;;;;9.82;1.40;;;8.40;99.90;;;;;;7364455;32;20139;-55
2023/12/30 01:12:13;;;;;;;10.05;1.40;;;8.30;99.90;;;;;;7366767;32;20229;-55
2023/12/30 01:16:16;;;;;;;13.20;1.40;;;8.30;99.90;;;;;;7370745;32;20226;-55
2023/12/30 01:20:18;;;;;;;6.82;0.85;;;8.30;99.90;;;;;;7360241;32;20121;-55
2023/12/30 01:24:20;;;;;;;12.90;1.55;;;8.30;99.90;;;;;;7360855;32;20126;-55
2023/12/30 01:28:22;;;;;;;9.07;1.30;;;8.30;99.90;;;;;;7366996;32;20461;-55
2023/12/30 01:32:23;;;;;;;6.35;0.75;;;8.30;99.90;;;;;;7362805;32;20095;-55
2023/12/30 01:36:25;;;;;;;6.40;1.10;;;8.30;99.90;;;;;;7361235;32;20114;-55
2023/12/30 01:40:27;;;;;;;9.80;1.50;;;8.30;99.90;;;;;;7364377;32;20169;-55
2023/12/30 01:44:29;;;;;;;7.07;1.15;;;8.40;99.90;;;;;;7367394;32;20175;-55
2023/12/30 01:48:31;;;;;;;10.05;1.35;;;8.30;99.90;;;;;;7368240;32;20103;-55
2023/12/30 01:52:35;;;;;;;11.43;1.83;;;8.30;99.90;;;;;;7363830;32;20191;-54
2023/12/30 01:56:37;;;;;;;12.52;1.75;;;8.30;99.90;;;;;;7369304;32;20203;-55
2023/12/30 02:00:42;;;;;;;11.07;1.50;;;8.20;99.90;;;;;;7366320;32;20129;-54
2023/12/30 02:04:44;;;;;;;11.30;1.25;;;8.30;99.90;;;;;;7364133;32;20611;-55
2023/12/30 02:08:47;;;;;;;7.68;1.23;;;8.30;99.90;;;;;;7360250;32;20520;-54
2023/12/30 02:12:48;;;;;;;9.52;1.42;;;8.30;99.90;;;;;;7364311;32;20130;-54
2023/12/30 02:16:50;;;;;;;11.48;1.55;;;8.30;99.90;;;;;;7364426;32;20126;-55
2023/12/30 02:20:52;;;;;;;8.65;1.52;;;8.30;99.90;;;;;;7369019;32;20253;-56
2023/12/30 02:24:59;;;;;;;12.73;1.52;;;8.30;99.90;;;;;;7359062;32;20133;-55
2023/12/30 02:29:01;;;;;;;11.32;1.85;;;8.30;99.90;;;;;;7370911;32;20183;-55
2023/12/30 02:33:03;;;;;;;10.75;1.17;;;8.30;99.90;;;;;;7366798;32;20664;-55
2023/12/30 02:37:05;;;;;;;13.48;1.60;;;8.30;99.90;;;;;;7366067;32;20178;-55
2023/12/30 02:41:07;;;;;;;15.13;1.75;;;8.30;99.90;;;;;;7366921;32;20459;-55
2023/12/30 02:45:09;;;;;;;9.55;1.50;;;8.20;99.90;;;;;;7366182;32;20570;-56
2023/12/30 02:49:11;;;;;;;13.75;1.85;;;8.20;99.90;;;;;;7362525;32;20110;-55
2023/12/30 02:53:13;;;;;;;9.90;1.60;;;8.20;99.90;;;;;;7368190;32;20229;-55
2023/12/30 02:57:15;;;;;;;12.90;1.50;;;8.10;99.90;;;;;;7358727;32;20217;-55
2023/12/30 03:01:16;;;;;;;11.32;1.62;;;8.00;99.90;;;;;;7359370;32;20103;-55
2023/12/30 03:05:18;;;;;;;13.65;1.40;;;8.00;99.90;;;;;;7358603;32;20449;-55
2023/12/30 03:09:20;;;;;;;11.80;1.40;;;8.00;99.90;;;;;;7365150;32;20122;-55
2023/12/30 03:13:22;;;;;;;8.80;1.75;;;7.90;99.90;;;;;;7366996;32;20130;-55
2023/12/30 03:17:24;;;;;;;11.10;1.73;;;7.90;99.90;;;;;;7364451;32;20155;-55
2023/12/30 03:21:26;;;;;;;10.25;1.12;;;7.90;99.90;;;;;;7367189;32;20284;-55
2023/12/30 03:25:27;;;;;;;7.68;1.85;;;7.90;99.90;;;;;;7356962;32;20602;-55
2023/12/30 03:29:29;;;;;;;10.35;1.45;;;7.90;99.90;;;;;;7371405;32;20174;-56
2023/12/30 03:33:31;;;;;;;12.18;1.65;;;8.00;99.90;;;;;;7358368;32;20099;-56
2023/12/30 03:37:33;;;;;;;7.25;1.30;;;8.00;99.90;;;;;;7359793;32;20478;-55
2023/12/30 03:41:35;;;;;;;13.82;1.55;;;8.00;99.90;;;;;;7363606;32;20129;-55
2023/12/30 03:45:37;;;;;;;14.30;1.48;;;8.00;99.90;;;;;;7362540;32;20214;-55
2023/12/30 03:49:39;;;;;;;11.27;1.52;;;8.00;99.90;;;;;;7373240;32;20138;-55
2023/12/30 03:53:41;;;;;;;12.80;1.80;;;7.90;99.90;;;;;;7375713;32;20210;-55
2023/12/30 03:57:43;;;;;;;14.20;1.58;;;7.90;99.90;;;;;;7363786;32;20450;-55
2023/12/30 04:01:45;;;;;;;8.73;1.40;;;7.90;99.90;;;;;;7370679;32;20277;-55
2023/12/30 04:05:47;;;;;;;14.87;1.67;;;7.90;99.90;;;;;;7369662;32;20102;-55
2023/12/30 04:09:48;;;;;;;9.43;1.42;;;8.00;99.90;;;;;;7372866;32;20173;-55
2023/12/30 04:13:50;;;;;;;12.25;1.85;;;8.00;99.90;;;;;;7363062;32;20261;-55
2023/12/30 04:17:52;;;;;;;10.32;1.35;;;8.10;99.90;;;;;;7363754;32;20172;-55
2023/12/30 04:21:54;;;;;;;8.32;1.40;;;8.10;99.90;;;;;;7367546;32;20230;-55
2023/12/30 04:25:56;;;;;;;14.13;1.58;;;8.10;99.90;;;;;;7359203;32;20103;-55
2023/12/30 04:29:57;;;;;;;15.02;1.77;;;8.20;99.90;;;;;;7368651;32;20130;-55
2023/12/30 04:33:59;;;;;;;9.88;1.45;;;8.10;99.90;;;;;;7368485;32;20560;-55
2023/12/30 04:38:01;;;;;;;10.90;1.50;;;8.10;99.90;;;;;;7365646;32;20462;-56
2023/12/30 04:42:03;;;;;;;15.20;1.60;;;8.00;99.90;;;;;;7362236;32;20148;-56
2023/12/30 04:46:05;;;;;;;8.48;1.95;;;8.00;99.90;;;;;;7356501;32;20204;-55
2023/12/30 04:50:07;;;;;;;10.93;1.30;;;8.00;99.90;;;;;;7362954;32;20191;-56
2023/12/30 04:54:09;;;;;;;13.90;1.87;;;8.00;99.90;;;;;;7353390;32;20604;-55
2023/12/30 04:58:11;;;;;;;12.75;1.35;;;8.00;99.90;;;;;;7361928;32;20107;-56
2023/12/30 05:02:13;;;;;;;11.63;1.60;;;8.00;99.90;;;;;;7358316;32;20117;-55
2023/12/30 05:06:19;;;;;;;9.43;1.37;;;8.00;99.90;;;;;;7364563;32;20198;-56
2023/12/30 05:10:21;;;;;;;12.98;1.87;;;8.00;99.90;;;;;;7365610;32;20193;-55
2023/12/30 05:14:23;;;;;;;14.00;1.55;;;7.90;99.90;;;;;;7363183;32;20558;-56
2023/12/30 05:18:25;;;;;;;11.93;2.00;;;7.90;99.90;;;;;;7364969;32;20271;-55
2023/12/30 05:22:27;;;;;;;11.35;1.48;;;8.00;99.90;;;;;;7355519;32;20127;-55
2023/12/30 05:26:29;;;;;;;8.55;1.30;;;7.90;99.90;;;;;;7365289;32;20143;-55
2023/12/30 05:30:30;;;;;;;15.20;1.37;;;7.90;99.90;;;;;;7354522;32;20129;-55
2023/12/30 05:34:32;;;;;;;9.25;1.77;;;7.90;99.90;;;;;;7357102;32;20122;-55
2023/12/30 05:38:34;;;;;;;11.82;1.73;;;7.80;99.90;;;;;;7362539;32;20234;-55
2023/12/30 05:42:36;;;;;;;8.35;2.00;;;7.90;99.90;;;;;;7373481;32;20107;-55
2023/12/30 05:46:38;;;;;;;14.73;1.70;;;7.80;99.90;;;;;;7366716;32;20111;-56
2023/12/30 05:50:40;;;;;;;10.65;1.48;;;7.70;99.90;;;;;;7366730;32;20122;-56
2023/12/30 05:54:44;;;;;;;14.05;1.73;;;7.70;99.90;;;;;;7359748;32;20258;-56
2023/12/30 05:58:46;;;;;;;12.18;1.98;;;7.70;99.90;;;;;;7353596;32;20279;-55
2023/12/30 06:02:49;;;;;;;14.85;1.95;;;7.50;99.90;;;;;;7361087;32;20212;-56
2023/12/30 06:06:52;;;;;;;8.30;1.95;;;7.60;99.90;;;;;;7356260;32;20206;-55
2023/12/30 06:10:54;;;;;;;13.23;1.83;;;7.50;99.90;;;;;;7357099;32;20204;-55
2023/12/30 06:14:56;;;;;;;9.63;1.42;;;7.60;99.90;;;;;;7354008;32;20285;-56
2023/12/30 06:18:58;;;;;;;11.75;1.80;;;7.60;99.90;;;;;;7350148;32;20952;-55
2023/12/30 06:23:00;;;;;;;10.95;1.55;;;7.70;99.90;;;;;;7367264;32;20106;-56
2023/12/30 06:27:02;;;;;;;11.07;1.80;;;7.70;99.90;;;;;;7367097;32;20117;-55
2023/12/30 06:31:03;;;;;;;10.93;1.98;;;7.80;99.90;;;;;;7351179;32;20191;-55
2023/12/30 06:35:06;;;;;;;13.30;2.15;;;7.80;99.90;;;;;;7347012;32;20197;-56
2023/12/30 06:39:08;;;;;;;11.88;1.98;;;7.90;99.90;;;;;;7350649;32;20278;-56
2023/12/30 06:43:10;;;;;;;14.00;2.20;;;7.90;99.90;;;;;;7351128;32;20178;-56
2023/12/30 06:47:19;;;;;;;12.85;1.98;;;7.90;99.90;;;;;;7349721;32;20095;-56
2023/12/30 06:51:20;;;;;;;11.55;2.50;;;7.90;99.90;;;;;;7350254;32;20190;-55
2023/12/30 06:55:22;;;;;;;17.67;3.10;;;7.70;99.90;;;;;;7356129;32;20213;-55
2023/12/30 06:59:35;;;;;;;18.45;2.92;;;7.80;99.90;;;;;;7350961;32;20321;-56
2023/12/30 07:03:37;;;;;;;11.00;2.22;;;7.90;99.90;;;;;;7355481;32;20284;-56
2023/12/30 07:07:39;;;;;;;14.57;2.15;;;7.80;99.90;;;;;;7349938;32;22295;-56
2023/12/30 07:11:40;;;;;;;15.30;1.87;;;7.80;99.90;;;;;;7340825;32;20178;-56
2023/12/30 07:15:42;;;;;;;11.05;1.75;;;7.90;99.90;;;;;;7357925;32;20573;-56
2023/12/30 07:19:44;;;;;;;11.88;1.92;;;7.70;99.90;;;;;;7350541;32;20178;-56
2023/12/30 07:23:46;;;;;;;11.38;1.55;;;7.70;99.90;;;;;;7358483;32;20211;-56
2023/12/30 07:27:49;;;;;;;9.57;1.33;;;7.60;99.90;;;;;;7353142;32;20201;-57
2023/12/30 07:31:50;;;;;;;13.43;1.77;;;7.60;99.90;;;;;;7352667;32;20190;-56
2023/12/30 07:35:52;;;;;;;12.90;1.42;;;7.60;99.90;;;;;;7350279;32;20292;-56
2023/12/30 07:39:55;;;;;;;10.23;1.55;;;7.60;99.90;;;;;;7355081;32;20794;-57
2023/12/30 07:43:57;;;;;;;11.55;1.40;;;7.60;99.90;;;;;;7363240;32;20614;-57
2023/12/30 07:47:59;;;;;;;10.70;1.45;;;7.60;99.90;;;;;;7359432;32;20270;-57
2023/12/30 07:52:01;;;;;;;12.32;1.87;;;7.60;99.90;;;;;;7351033;32;20543;-56
2023/12/30 07:56:03;;;;;;;15.38;2.12;;;7.70;99.90;;;;;;7355431;32;20272;-56
2023/12/30 08:00:06;;;;;;;11.00;1.87;;;7.80;99.90;;;;;;7359597;32;20309;-57
2023/12/30 08:04:08;;;;;;;13.70;1.80;;;7.70;99.90;;;;;;7357347;32;20201;-58
2023/12/30 08:08:12;;;;;;;13.68;1.95;;;7.80;99.90;;;;;;7365394;32;20133;-56
2023/12/30 08:12:14;;;;;;;8.90;1.70;;;7.90;99.90;;;;;;7361247;32;20544;-57
2023/12/30 08:16:16;;;;;;;11.93;2.03;;;7.90;99.90;;;;;;7359654;32;20623;-57
2023/12/30 08:20:18;;;;;;;14.87;1.90;;;7.90;99.90;;;;;;7367068;32;20098;-56
2023/12/30 08:24:20;;;;;;;12.13;1.62;;;7.90;99.90;;;;;;7355885;32;20211;-57
2023/12/30 08:28:22;;;;;;;14.98;2.17;;;7.90;99.90;;;;;;7358578;32;20119;-56
2023/12/30 08:32:24;;;;;;;10.82;1.77;;;8.00;99.90;;;;;;7360606;32;20148;-56
2023/12/30 08:36:28;;;;;;;8.38;1.40;;;8.10;99.90;;;;;;7362902;32;20186;-56
2023/12/30 08:40:30;;;;;;;12.02;1.85;;;8.10;99.90;;;;;;7362946;32;20115;-57
2023/12/30 08:44:40;;;;;;;13.05;2.03;;;8.10;99.90;;;;;;7357593;32;20099;-57
2023/12/30 08:48:42;;;;;;;14.07;2.25;;;8.10;99.90;;;;;;7363554;32;20159;-56
2023/12/30 08:52:44;;;;;;;20.55;2.10;;;8.10;99.90;;;;;;7355453;32;20320;-57
2023/12/30 08:56:45;;;;;;;10.48;1.90;;;8.10;99.90;;;;;;7348388;32;20182;-57
2023/12/30 09:00:48;;;;;;;14.18;1.98;;;8.20;99.90;;;;;;7359351;32;20260;-57
2023/12/30 09:04:50;;;;;;;17.17;2.30;;;8.20;99.90;;;;;;7358655;32;20237;-56
2023/12/30 09:08:51;;;;;;;12.88;2.15;;;8.20;99.90;;;;;;7360283;32;20198;-56
2023/12/30 09:12:53;;;;;;;14.63;2.20;;;8.20;99.90;;;;;;7354377;32;20209;-57
2023/12/30 09:16:55;;;;;;;11.52;2.03;;;8.30;99.90;;;;;;7358853;32;20134;-56
2023/12/30 09:20:56;;;;;;;13.13;2.37;;;8.20;99.90;;;;;;7356812;32;20315;-57
2023/12/30 09:24:58;;;;;;;10.93;2.47;;;8.20;99.90;;;;;;7354869;32;20201;-57
2023/12/30 09:29:00;;;;;;;17.42;2.17;;;8.30;99.90;;;;;;7360364;32;20687;-56
2023/12/30 09:33:02;;;;;;;13.13;2.45;;;8.30;99.90;;;;;;7361143;32;20107;-57
2023/12/30 09:37:05;;;;;;;17.67;3.20;;;8.30;99.90;;;;;;7366162;32;20677;-56
2023/12/30 09:41:06;;;;;;;11.90;2.92;;;8.40;99.90;;;;;;7361693;32;20111;-56
2023/12/30 09:45:24;;;;;;;14.77;2.37;;;8.40;99.90;;;;;;7360879;32;20138;-57
2023/12/30 09:49:28;;;;;;;12.80;2.30;;;8.50;99.90;;;;;;7353418;32;20202;-57
2023/12/30 09:53:30;;;;;;;15.80;2.20;;;8.50;99.90;;;;;;7363128;32;21003;-56
2023/12/30 09:57:32;;;;;;;10.55;1.90;;;8.60;99.90;;;;;;7361975;32;20290;-56
2023/12/30 10:01:34;;;;;;;7.85;1.60;;;8.70;99.90;;;;;;7355235;32;20125;-56
2023/12/30 10:05:38;;;;;;;12.37;2.15;;;8.70;99.90;;;;;;7364187;32;20663;-57
2023/12/30 10:09:41;;;;;;;10.65;1.95;;;8.80;99.90;;;;;;7364230;32;20998;-56
2023/12/30 10:13:43;;;;;;;13.23;2.15;;;8.90;99.90;;;;;;7353944;32;20107;-55
2023/12/30 10:17:44;;;;;;;13.62;2.17;;;9.00;99.90;;;;;;7364252;32;20103;-56
2023/12/30 10:21:46;;;;;;;11.63;2.55;;;9.00;99.90;;;;;;7363785;32;20608;-56
2023/12/30 10:25:48;;;;;;;10.77;2.37;;;9.10;99.90;;;;;;7359848;32;21886;-57
2023/12/30 10:29:56;;;;;;;11.18;2.33;;;9.10;99.90;;;;;;7366798;32;20127;-55
2023/12/30 10:34:03;;;;;;;13.55;2.10;;;9.20;99.90;;;;;;7358808;32;20090;-56
2023/12/30 10:38:06;;;;;;;11.43;2.08;;;9.40;99.90;;;;;;7361390;32;20625;-58
2023/12/30 10:42:10;;;;;;;15.02;2.40;;;9.70;99.90;;;;;;7361598;32;20190;-56
2023/12/30 10:46:13;;;;;;;10.55;2.05;;;9.70;99.90;;;;;;7364077;32;20242;-56
2023/12/30 10:50:14;;;;;;;10.57;2.00;;;9.70;99.90;;;;;;7361325;32;20130;-56
2023/12/30 10:54:23;;;;;;;12.88;4.22;;;9.70;99.90;;;;;;7356296;32;20183;-57
2023/12/30 10:58:25;;;;;;;8.15;1.77;;;9.60;99.90;;;;;;7359088;32;20163;-57
2023/12/30 11:02:27;;;;;;;11.50;1.87;;;9.80;99.90;;;;;;7359184;32;20193;-56
2023/12/30 11:06:48;;;;;;;13.98;1.98;;;9.80;99.90;;;;;;7355930;32;20099;-57
2023/12/30 11:10:52;;;;;;;9.82;1.67;;;9.80;99.90;;;;;;7362259;32;20492;-58
2023/12/30 11:14:55;;;;;;;10.02;1.98;;;9.70;99.90;;;;;;7359838;32;20532;-57
2023/12/30 11:18:58;;;;;;;10.57;1.60;;;9.70;99.90;;;;;;7363407;32;20171;-58
2023/12/30 11:23:03;;;;;;;11.40;1.87;;;9.80;99.90;;;;;;7355435;32;20287;-57
2023/12/30 11:27:05;;;;;;;10.77;2.03;;;9.90;99.90;;;;;;7363784;32;20662;-57
2023/12/30 11:31:09;;;;;;;15.15;2.00;;;10.00;99.90;;;;;;7361321;32;20608;-57
2023/12/30 11:35:12;;;;;;;7.43;1.30;;;10.10;99.90;;;;;;7365317;32;20154;-58
2023/12/30 11:39:24;;;;;;;13.45;2.95;;;10.00;99.90;;;;;;7356560;32;20100;-57
2023/12/30 11:43:26;;;;;;;13.40;2.33;;;10.00;99.90;;;;;;7358926;32;20095;-54
2023/12/30 11:47:30;;;;;;;8.73;1.80;;;10.30;99.90;;;;;;7358395;32;20137;-55
2023/12/30 11:51:32;;;;;;;12.00;1.70;;;10.30;99.90;;;;;;7364201;32;20103;-55
2023/12/30 11:55:33;;;;;;;13.27;1.87;;;10.40;99.90;;;;;;7357859;32;20118;-54
2023/12/30 11:59:35;;;;;;;8.05;1.45;;;10.60;99.90;;;;;;7357891;32;20153;-57
2023/12/30 12:03:37;;;;;;;14.48;1.55;;;10.60;99.90;;;;;;7355433;32;20257;-55
2023/12/30 12:07:39;;;;;;;9.02;1.52;;;10.50;99.90;;;;;;7366427;32;20167;-56
2023/12/30 12:11:41;;;;;;;9.15;1.65;;;10.50;99.90;;;;;;7365672;32;20223;-56
2023/12/30 12:15:42;;;;;;;10.45;1.75;;;10.50;99.90;;;;;;7362701;32;20395;-57
2023/12/30 12:19:46;;;;;;;9.38;1.80;;;10.40;99.90;;;;;;7355539;32;20107;-57
2023/12/30 12:23:48;;;;;;;12.48;1.70;;;10.40;99.90;;;;;;7363774;32;20209;-57
2023/12/30 12:27:49;;;;;;;12.02;1.58;;;10.50;99.90;;;;;;7359377;32;20306;-58
2023/12/30 12:31:51;;;;;;;9.52;1.60;;;10.60;99.90;;;;;;7363946;32;20139;-55
2023/12/30 12:35:53;;;;;;;11.32;1.87;;;10.70;99.90;;;;;;7358808;32;20213;-55
2023/12/30 12:39:55;;;;;;;12.13;2.12;;;10.50;99.90;;;;;;7368038;32;20326;-56
2023/12/30 12:43:57;;;;;;;13.45;2.12;;;10.50;99.90;;;;;;7366560;32;20541;-57
2023/12/30 12:47:59;;;;;;;9.68;1.92;;;10.50;99.90;;;;;;7359949;32;20220;-58
2023/12/30 12:52:02;;;;;;;10.68;1.87;;;10.40;99.90;;;;;;7364413;32;20201;-56
2023/12/30 12:56:04;;;;;;;12.15;1.85;;;10.30;99.90;;;;;;7361864;32;20510;-56
2023/12/30 13:00:08;;;;;;;9.18;1.60;;;10.40;99.90;;;;;;7366487;32;20126;-55
2023/12/30 13:04:10;;;;;;;11.43;1.80;;;10.40;99.90;;;;;;7358175;32;20158;-57
2023/12/30 13:08:12;;;;;;;11.43;1.27;;;10.50;99.90;;;;;;7368068;32;20153;-56
2023/12/30 13:12:14;;;;;;;10.43;1.83;;;10.40;99.90;;;;;;7370253;32;20119;-56
2023/12/30 13:16:16;;;;;;;6.87;1.33;;;10.30;99.90;;;;;;7361084;32;20134;-56
2023/12/30 13:20:17;;;;;;;12.27;1.85;;;10.30;99.90;;;;;;7365706;32;20202;-57
2023/12/30 13:24:20;;;;;;;12.93;1.20;;;10.30;99.90;;;;;;7352302;32;20777;-57
2023/12/30 13:28:21;;;;;;;6.50;1.40;;;10.40;99.90;;;;;;7358431;32;20715;-56
2023/12/30 13:32:27;;;;;;;9.70;1.40;;;10.50;99.90;;;;;;7352099;32;20270;-56
2023/12/30 13:36:30;;;;;;;8.80;1.15;;;10.40;99.90;;;;;;7350910;32;20107;-57
2023/12/30 13:40:32;;;;;;;7.50;1.58;;;10.40;99.90;;;;;;7355286;32;20515;-57
2023/12/30 13:44:35;;;;;;;6.68;1.33;;;10.40;99.90;;;;;;7354732;32;20145;-56
2023/12/30 13:53:02;;;;;;;6.78;1.15;;;10.40;99.90;;;;;;7369352;32;20130;-56
2023/12/30 13:57:16;;;;;;;7.37;1.50;;;10.30;99.90;;;;;;7348224;32;20119;-56
2023/12/30 14:01:21;;;;;;;7.93;1.37;;;10.40;99.90;;;;;;7356842;32;20182;-57
2023/12/30 14:05:29;;;;;;;4.97;1.17;;;10.30;99.90;;;;;;7371160;32;20149;-56
2023/12/30 14:09:45;;;;;;;5.47;1.00;;;10.30;99.90;;;;;;7368290;32;20563;-56
2023/12/30 14:13:49;;;;;;;10.05;1.35;;;10.20;99.90;;;;;;7359086;32;20499;-56
2023/12/30 14:17:51;;;;;;;12.60;1.30;;;10.20;99.90;;;;;;7366626;32;20207;-59
2023/12/30 14:21:53;;;;;;;9.18;1.45;;;10.30;99.90;;;;;;7358516;32;20156;-59
2023/12/30 14:25:55;;;;;;;6.72;1.30;;;10.40;99.90;;;;;;7369671;32;20123;-59
2023/12/30 14:29:58;;;;;;;6.32;1.20;;;10.50;99.90;;;;;;7367888;32;20520;-56
2023/12/30 14:34:01;;;;;;;8.75;1.33;;;10.40;99.90;;;;;;7361389;32;22550;-56
2023/12/30 14:38:04;;;;;;;7.43;1.15;;;10.20;99.90;;;;;;7362090;32;20388;-57
2023/12/30 14:42:06;;;;;;;5.60;0.95;;;10.00;99.90;;;;;;7365695;32;20159;-56
2023/12/30 14:46:10;;;;;;;5.40;1.00;;;9.90;99.90;;;;;;7362679;32;20303;-56
2023/12/30 14:50:12;;;;;;;8.57;1.40;;;9.70;99.90;;;;;;7367050;32;20138;-56
2023/12/30 14:54:14;;;;;;;9.00;1.33;;;9.70;99.90;;;;;;7368267;32;20359;-56
2023/12/30 14:58:16;;;;;;;6.05;1.23;;;9.60;99.90;;;;;;7365193;32;20157;-56
2023/12/30 15:02:18;;;;;;;5.25;1.20;;;9.50;99.90;;;;;;7355548;32;20298;-57
2023/12/30 15:06:20;;;;;;;5.70;0.80;;;9.30;99.90;;;;;;7362858;32;20127;-56
2023/12/30 15:10:22;;;;;;;8.98;1.40;;;9.20;99.90;;;;;;7353949;32;20103;-56
2023/12/30 15:14:24;;;;;;;8.00;1.12;;;9.10;99.90;;;;;;7354630;32;20141;-57
2023/12/30 15:18:26;;;;;;;8.60;1.25;;;9.10;99.90;;;;;;7355134;32;20107;-56
2023/12/30 15:22:29;;;;;;;6.00;1.23;;;9.20;99.90;;;;;;7362534;32;20494;-56
2023/12/30 15:26:31;;;;;;;6.47;1.25;;;9.20;99.90;;;;;;7363942;32;20125;-56
2023/12/30 15:30:33;;;;;;;6.93;1.02;;;9.20;99.90;;;;;;7352451;32;20119;-56
2023/12/30 15:34:36;;;;;;;6.15;0.93;;;9.20;99.90;;;;;;7365541;32;20111;-55
2023/12/30 15:38:38;;;;;;;6.80;0.90;;;9.30;99.90;;;;;;7362595;32;20216;-56
2023/12/30 15:42:40;;;;;;;10.88;1.25;;;9.30;99.90;;;;;;7361306;32;20213;-55
2023/12/30 15:46:41;;;;;;;5.25;0.95;;;9.30;99.90;;;;;;7369087;32;20191;-55
2023/12/30 15:50:44;;;;;;;7.37;1.08;;;9.40;99.90;;;;;;7360430;32;20114;-55
2023/12/30 15:54:47;;;;;;;8.57;1.52;;;9.40;99.90;;;;;;7362664;32;20154;-56
2023/12/30 15:58:49;;;;;;;7.20;1.12;;;9.40;99.90;;;;;;7370555;32;20504;-55
2023/12/30 16:02:50;;;;;;;6.00;1.23;;;9.40;99.90;;;;;;7368251;32;20182;-55
2023/12/30 16:06:52;;;;;;;10.93;1.23;;;9.30;99.90;;;;;;7371930;32;20127;-54
2023/12/30 16:10:55;;;;;;;8.93;1.23;;;9.30;99.90;;;;;;7357296;32;20668;-55
2023/12/30 16:14:57;;;;;;;6.62;1.27;;;9.30;99.90;;;;;;7364971;32;20563;-55
2023/12/30 16:18:58;;;;;;;6.68;1.15;;;9.20;99.90;;;;;;7364622;32;20230;-54
2023/12/30 16:23:03;;;;;;;4.55;0.93;;;9.10;99.90;;;;;;7365661;32;20115;-55
2023/12/30 16:27:06;;;;;;;5.65;1.20;;;9.10;99.90;;;;;;7367713;32;20094;-54
2023/12/30 16:31:08;;;;;;;8.20;1.30;;;9.00;99.90;;;;;;7354505;32;20292;-55
2023/12/30 16:35:10;;;;;;;8.55;1.12;;;9.00;99.90;;;;;;7357230;32;20117;-54
2023/12/30 16:39:12;;;;;;;8.40;1.37;;;9.00;99.90;;;;;;7373295;32;20267;-54
2023/12/30 16:43:14;;;;;;;9.20;1.40;;;8.90;99.90;;;;;;7364235;32;20102;-54
2023/12/30 16:47:16;;;;;;;6.45;1.25;;;9.00;99.90;;;;;;7366631;32;20186;-53
2023/12/30 16:51:18;;;;;;;7.45;1.30;;;8.90;99.90;;;;;;7369798;32;20214;-53
2023/12/30 16:55:20;;;;;;;7.05;1.55;;;8.80;99.90;;;;;;7366296;32;20174;-54
2023/12/30 16:59:22;;;;;;;5.25;1.30;;;8.90;99.90;;;;;;7372897;32;20498;-55
2023/12/30 17:03:23;;;;;;;6.95;1.50;;;8.90;99.90;;;;;;7361309;32;20252;-55
2023/12/30 17:07:25;;;;;;;6.60;1.20;;;8.80;99.90;;;;;;7359297;32;20122;-56
2023/12/30 17:11:27;;;;;;;6.07;1.10;;;8.60;99.90;;;;;;7366573;32;20129;-60
2023/12/30 17:15:29;;;;;;;7.12;1.33;;;8.50;99.90;;;;;;7365449;32;20194;-56
2023/12/30 17:19:32;;;;;;;9.40;1.45;;;8.50;99.90;;;;;;7365624;32;20103;-55
2023/12/30 17:23:34;;;;;;;3.55;1.20;;;8.60;99.90;;;;;;7352092;32;20201;-54
2023/12/30 17:27:36;;;;;;;6.37;1.02;;;8.70;99.90;;;;;;7367090;32;20137;-54
2023/12/30 17:31:38;;;;;;;5.15;1.15;;;8.80;99.90;;;;;;7366289;32;20500;-53
2023/12/30 17:35:41;;;;;;;6.37;1.12;;;8.80;99.90;;;;;;7371498;32;20251;-55
2023/12/30 17:39:42;;;;;;;6.65;1.40;;;8.80;99.90;;;;;;7366153;32;20107;-54
2023/12/30 17:43:44;;;;;;;5.55;1.30;;;8.90;99.90;;;;;;7355245;32;20134;-54
2023/12/30 17:47:46;;;;;;;3.87;1.10;;;8.90;99.90;;;;;;7366499;32;20106;-54
2023/12/30 17:51:48;;;;;;;6.05;1.08;;;8.90;99.90;;;;;;7364238;32;20159;-54
2023/12/30 17:55:50;;;;;;;4.65;1.00;;;8.90;99.90;;;;;;7359752;32;20190;-54
2023/12/30 17:59:52;;;;;;;6.00;1.00;;;8.90;99.90;;;;;;7355672;32;20210;-55
2023/12/30 18:03:54;;;;;;;3.75;0.93;;;8.80;99.90;;;;;;7353101;32;20178;-55
2023/12/30 18:07:55;;;;;;;3.15;1.00;;;8.70;99.90;;;;;;7355951;32;20260;-56
2023/12/30 18:11:57;;;;;;;5.20;1.08;;;8.80;99.90;;;;;;7356100;32;20299;-55
2023/12/30 18:15:59;;;;;;;5.35;0.85;;;8.80;99.90;;;;;;7351252;32;20182;-57
2023/12/30 18:20:01;;;;;;;3.75;1.00;;;8.80;99.90;;;;;;7359941;32;20204;-55
2023/12/30 18:24:03;;;;;;;5.07;1.08;;;8.90;99.90;;;;;;7355474;32;20198;-56
2023/12/30 18:28:05;;;;;;;3.70;1.00;;;8.90;99.90;;;;;;7351960;32;20159;-55
2023/12/30 18:32:10;;;;;;;1.87;0.88;;;8.90;99.90;;;;;;7368628;32;20103;-55
2023/12/30 18:36:12;;;;;;;3.70;0.95;;;8.80;99.90;;;;;;7363620;32;20203;-55
2023/12/30 18:40:14;;;;;;;3.87;1.48;;;8.90;99.90;;;;;;7353561;32;20135;-57
2023/12/30 18:44:16;;;;;;;2.70;0.98;;;8.90;99.90;;;;;;7370795;32;20091;-55
2023/12/30 18:48:18;;;;;;;4.35;1.40;;;8.90;99.90;;;;;;7370125;32;20505;-55
2023/12/30 18:52:20;;;;;;;3.72;1.05;;;8.90;99.90;;;;;;7356582;32;20123;-55
2023/12/30 18:56:22;;;;;;;5.45;1.60;;;8.90;99.90;;;;;;7354465;32;20203;-55
2023/12/30 19:00:25;;;;;;;3.70;1.60;;;8.80;99.90;;;;;;7363641;32;20953;-55
2023/12/30 19:04:28;;;;;;;7.10;1.62;;;8.80;99.90;;;;;;7359458;32;20107;-55
2023/12/30 19:08:31;;;;;;;7.28;1.55;;;8.70;99.90;;;;;;7360607;32;20277;-55
2023/12/30 19:12:33;;;;;;;2.58;1.60;;;8.70;99.90;;;;;;7353988;32;20435;-55
2023/12/30 19:16:35;;;;;;;5.47;2.15;;;8.60;99.90;;;;;;7366302;32;20227;-57
2023/12/30 19:20:37;;;;;;;4.37;2.33;;;8.60;99.90;;;;;;7371583;32;20135;-56
2023/12/30 19:24:38;;;;;;;5.62;1.70;;;8.60;99.90;;;;;;7373472;32;20584;-57
2023/12/30 19:28:40;;;;;;;6.00;1.70;;;8.60;99.90;;;;;;7371636;32;20118;-56
2023/12/30 19:32:42;;;;;;;5.70;2.00;;;8.60;99.90;;;;;;7361889;32;20273;-56
2023/12/30 19:36:44;;;;;;;3.87;1.45;;;8.60;99.90;;;;;;7370701;32;20253;-55
2023/12/30 19:40:49;;;;;;;6.05;1.50;;;8.70;99.90;;;;;;7377147;32;20163;-56
2023/12/30 19:44:51;;;;;;;4.72;1.48;;;8.70;99.90;;;;;;7366490;32;20115;-55
2023/12/30 19:48:53;;;;;;;3.75;1.55;;;8.60;99.90;;;;;;7364393;32;20107;-56
2023/12/30 19:52:55;;;;;;;4.00;1.50;;;8.60;99.90;;;;;;7363251;32;20544;-53
2023/12/30 19:56:57;;;;;;;3.00;1.30;;;8.60;99.90;;;;;;7359203;32;20106;-55
2023/12/30 20:00:58;;;;;;;3.28;1.20;;;8.60;99.90;;;;;;7363397;32;20190;-56
2023/12/30 20:05:00;;;;;;;4.55;1.35;;;8.60;99.90;;;;;;7364358;32;20110;-56
2023/12/30 20:09:03;;;;;;;5.03;1.45;;;8.60;99.90;;;;;;7370312;32;20221;-56
2023/12/30 20:13:06;;;;;;;6.07;1.62;;;8.60;99.90;;;;;;7370329;32;20963;-55
2023/12/30 20:17:08;;;;;;;3.97;1.52;;;8.60;99.90;;;;;;7359917;32;20505;-55
2023/12/30 20:21:10;;;;;;;4.30;1.60;;;8.60;99.90;;;;;;7362617;32;20572;-57
2023/12/30 20:25:12;;;;;;;6.62;2.25;;;8.50;99.90;;;;;;7369049;32;20253;-55
2023/12/30 20:29:14;;;;;;;5.97;2.00;;;8.50;99.90;;;;;;7365281;32;20117;-56
2023/12/30 20:33:19;;;;;;;3.12;1.40;;;8.50;99.90;;;;;;7368921;32;20127;-56
2023/12/30 20:37:21;;;;;;;4.43;1.48;;;8.50;99.90;;;;;;7370687;32;20213;-57
2023/12/30 20:41:23;;;;;;;3.50;1.30;;;8.50;99.90;;;;;;7365313;32;20828;-57
2023/12/30 20:45:24;;;;;;;7.30;2.00;;;8.60;99.90;;;;;;7366409;32;20166;-58
2023/12/30 20:49:26;;;;;;;3.87;1.73;;;8.60;99.90;;;;;;7368711;32;21501;-55
2023/12/30 20:53:29;;;;;;;4.37;1.40;;;8.50;99.90;;;;;;7374062;32;20122;-56
2023/12/30 20:57:31;;;;;;;2.87;1.30;;;8.60;99.90;;;;;;7365788;32;20167;-55
2023/12/30 21:01:32;;;;;;;4.78;1.48;;;8.60;99.90;;;;;;7366306;32;20214;-55
2023/12/30 21:05:35;;;;;;;3.87;0.95;;;8.60;99.90;;;;;;7365832;32;20115;-54
2023/12/30 21:09:38;;;;;;;5.32;1.48;;;8.70;99.90;;;;;;7367096;32;20108;-57
2023/12/30 21:13:43;;;;;;;4.47;1.40;;;8.80;99.90;;;;;;7367636;32;20226;-57